Terminal Aerodrome Forecast
Issued by NWS Raleigh/Durham, NC

Home | Current Version | Previous Version | Text Only | Print | Product List | Glossary On
Versions: 1 2 3 4 5 6 7 8 9 10 11 12 13 14 15 16 17 18 19 20 21 22 23 24 25 26 27 28 29 30 31 32 33 34 35 36
478
FTUS42 KRAH 270133 AAA
TAFRDU
TAF AMD
KRDU 270133Z 2702/2724 19005KT P6SM BKN060 BKN250
      TEMPO 2702/2704 4SM -TSRA BKN030CB OVC080
     FM270800 20005KT P6SM BKN018
     FM271400 23010KT P6SM BKN035=

USA.gov is the U.S. government's official web portal to all federal, state and local government web resources and services.